LEJR/XRY METAR and TAF weather

Enter ICAO airport designator
Station Type Date Time Source
LEJR METAR 2019/12/08 19:30 UTC NOAA

LEJR 081930Z 00000KT CAVOK 13/10 Q1027


Station Type Date Time Source
LEJR Decoded METAR 2019/12/08 19:30 UTC NOAA

Jerez De La Fronteraaeropuerto, Spain (LEJR) 36-45N 006-04W 28M
Dec 08, 2019 - 02:30 PM EST / 2019.12.08 1930 UTC
Wind: Calm:0
Visibility: greater than 7 mile(s):0
Temperature: 55 F (13 C)
Dew Point: 50 F (10 C)
Relative Humidity: 81%
Pressure (altimeter): 30.33 in. Hg (1027 hPa)
ob: LEJR 081930Z 00000KT CAVOK 13/10 Q1027
cycle: 19

Station Type Date Time Source
LEJR TAF 2019/12/08 18:27 UTC NOAA

TAF LEJR 081700Z 0818/0918 32005KT CAVOK TX19/0915Z TN07/0907Z PROB40
TEMPO 0900/0911 3000 BR BKN010

Example: see airport list